Time;durP1;ratioP1;P1;durP2;ratioP2;P2;SDS_P1;SDS_P2;PMS_P1;PMS_P2;Temp;Humidity;BMP_temperature;BMP_pressure;BME280_temperature;BME280_humidity;BME280_pressure;Samples;Min_cycle;Max_cycle;Signal;HPM_P1;HPM_P2
2023/07/20 00:01:44;;;;;;;3.05;1.58;;;17.30;99.90;;;;;;6302502;22;20047;-83
2023/07/20 00:04:10;;;;;;;2.90;1.40;;;17.30;99.90;;;;;;6301600;22;20068;-83
2023/07/20 00:06:40;;;;;;;3.22;1.48;;;17.30;99.90;;;;;;6275203;22;20011;-83
2023/07/20 00:09:09;;;;;;;4.90;1.60;;;17.30;99.90;;;;;;6248570;22;20451;-83
2023/07/20 00:11:38;;;;;;;2.40;1.10;;;17.30;99.90;;;;;;6274830;22;20022;-83
2023/07/20 00:14:07;;;;;;;1.92;1.10;;;17.30;99.90;;;;;;6248591;22;20019;-83
2023/07/20 00:16:33;;;;;;;2.70;1.02;;;17.20;99.90;;;;;;6301863;22;20015;-83
2023/07/20 00:18:58;;;;;;;2.83;1.00;;;17.20;99.90;;;;;;6275024;22;20015;-83
2023/07/20 00:21:25;;;;;;;2.35;1.27;;;17.20;99.90;;;;;;6275104;22;20062;-83
2023/07/20 00:23:51;;;;;;;2.08;1.10;;;17.20;99.90;;;;;;6274464;22;20487;-83
2023/07/20 00:26:17;;;;;;;2.05;0.90;;;17.20;99.90;;;;;;6274573;22;20059;-83
2023/07/20 00:28:43;;;;;;;2.33;0.90;;;17.20;99.90;;;;;;6275221;22;20137;-83
2023/07/20 00:31:09;;;;;;;2.10;1.10;;;17.10;99.90;;;;;;6302902;22;20015;-83
2023/07/20 00:33:34;;;;;;;2.33;0.90;;;17.10;99.90;;;;;;6301123;22;20303;-83
2023/07/20 00:36:00;;;;;;;2.38;1.05;;;17.00;99.90;;;;;;6274985;22;20007;-83
2023/07/20 00:38:26;;;;;;;2.72;1.20;;;16.90;99.90;;;;;;6302957;22;20019;-83
2023/07/20 00:40:52;;;;;;;1.75;0.80;;;16.90;99.90;;;;;;6301659;22;20011;-83
2023/07/20 00:43:19;;;;;;;3.10;1.02;;;16.80;99.90;;;;;;6274868;22;20022;-83
2023/07/20 00:45:45;;;;;;;2.08;1.10;;;16.80;99.90;;;;;;6275326;22;20019;-83
2023/07/20 00:48:12;;;;;;;3.88;1.13;;;16.80;99.90;;;;;;6276762;22;20093;-84
2023/07/20 00:50:41;;;;;;;3.00;1.10;;;16.70;99.90;;;;;;6276025;22;20054;-83
2023/07/20 00:53:07;;;;;;;2.00;1.05;;;16.70;99.90;;;;;;6276931;22;20011;-83
2023/07/20 00:55:34;;;;;;;2.40;1.20;;;16.70;99.90;;;;;;6250019;22;20103;-83
2023/07/20 00:58:00;;;;;;;2.60;1.40;;;16.70;99.90;;;;;;6276797;22;20011;-83
2023/07/20 01:00:26;;;;;;;2.47;1.58;;;16.60;99.90;;;;;;6304018;22;20025;-83
2023/07/20 01:02:52;;;;;;;3.25;1.33;;;16.60;99.90;;;;;;6304500;22;20515;-83
2023/07/20 01:05:18;;;;;;;3.08;1.63;;;16.60;99.90;;;;;;6250095;22;20140;-83
2023/07/20 01:08:02;;;;;;;2.60;1.45;;;16.70;99.90;;;;;;6275585;22;20011;-83
2023/07/20 01:10:46;;;;;;;4.90;2.43;;;16.70;99.90;;;;;;6275656;22;20218;-83
2023/07/20 01:13:14;;;;;;;3.10;1.70;;;16.60;99.90;;;;;;6276037;22;20026;-83
2023/07/20 01:15:40;;;;;;;3.67;2.08;;;16.60;99.90;;;;;;6303994;22;20007;-83
2023/07/20 01:18:06;;;;;;;3.70;1.73;;;16.60;99.90;;;;;;6302596;22;20090;-83
2023/07/20 01:20:34;;;;;;;3.90;1.95;;;16.60;99.90;;;;;;6303744;22;20046;-83
2023/07/20 01:23:21;;;;;;;4.60;2.33;;;16.50;99.90;;;;;;6276580;22;20046;-83
2023/07/20 01:26:08;;;;;;;5.00;2.55;;;16.50;99.90;;;;;;6276343;22;20019;-83
2023/07/20 01:28:44;;;;;;;3.63;2.10;;;16.50;99.90;;;;;;6304237;22;20331;-83
2023/07/20 01:31:15;;;;;;;4.88;2.63;;;16.50;99.90;;;;;;6304335;22;20011;-83
2023/07/20 01:33:42;;;;;;;4.13;2.60;;;16.40;99.90;;;;;;6276023;22;20438;-84
2023/07/20 01:36:08;;;;;;;4.25;1.92;;;16.40;99.90;;;;;;6275714;22;20376;-83
2023/07/20 01:38:34;;;;;;;4.22;2.10;;;16.40;99.90;;;;;;6302992;22;20015;-83
2023/07/20 01:41:03;;;;;;;4.70;2.00;;;16.40;99.90;;;;;;6303429;22;20015;-84
2023/07/20 01:43:29;;;;;;;4.75;2.80;;;16.30;99.90;;;;;;6250332;22;20059;-83
2023/07/20 01:45:55;;;;;;;4.18;2.42;;;16.30;99.90;;;;;;6275190;22;20038;-83
2023/07/20 01:48:20;;;;;;;4.07;2.58;;;16.30;99.90;;;;;;6250187;22;20011;-83
2023/07/20 01:50:46;;;;;;;6.47;3.53;;;16.20;99.90;;;;;;6276612;22;20034;-83
2023/07/20 01:53:12;;;;;;;4.32;2.75;;;16.20;99.90;;;;;;6250515;22;20011;-83
2023/07/20 01:55:38;;;;;;;5.78;2.65;;;16.10;99.90;;;;;;6277235;22;20007;-83
2023/07/20 01:58:04;;;;;;;5.25;3.42;;;16.00;99.90;;;;;;6276675;22;20015;-83
2023/07/20 02:00:30;;;;;;;4.95;3.25;;;16.10;99.90;;;;;;6251456;22;20058;-83
2023/07/20 02:02:55;;;;;;;4.10;2.35;;;16.00;99.90;;;;;;6304467;22;20023;-83
2023/07/20 02:05:21;;;;;;;5.85;2.83;;;16.10;99.90;;;;;;6276693;22;20011;-83
2023/07/20 02:07:47;;;;;;;5.05;2.95;;;16.00;99.90;;;;;;6251060;22;20023;-83
2023/07/20 02:10:13;;;;;;;4.15;2.55;;;16.00;99.90;;;;;;6250572;22;20334;-83
2023/07/20 02:12:39;;;;;;;3.72;2.20;;;16.00;99.90;;;;;;6251650;22;20091;-83
2023/07/20 02:15:05;;;;;;;5.78;3.80;;;15.90;99.90;;;;;;6275326;22;20017;-83
2023/07/20 02:17:31;;;;;;;3.80;2.20;;;15.90;99.90;;;;;;6250223;22;20062;-83
2023/07/20 02:20:00;;;;;;;4.15;2.40;;;15.90;99.90;;;;;;6303393;22;20079;-83
2023/07/20 02:22:26;;;;;;;4.80;3.63;;;15.80;99.90;;;;;;6275759;22;20019;-83
2023/07/20 02:24:53;;;;;;;5.05;2.95;;;15.80;99.90;;;;;;6276005;22;20034;-83
2023/07/20 02:27:18;;;;;;;5.25;3.60;;;15.80;99.90;;;;;;6250668;22;20023;-83
2023/07/20 02:29:44;;;;;;;4.78;3.30;;;15.70;99.90;;;;;;6303187;22;20030;-83
2023/07/20 02:32:10;;;;;;;5.40;3.55;;;15.70;99.90;;;;;;6275724;22;20446;-84
2023/07/20 02:34:36;;;;;;;7.53;4.47;;;15.70;99.90;;;;;;6276506;22;20038;-83
2023/07/20 02:37:02;;;;;;;5.75;3.60;;;15.60;99.90;;;;;;6274822;22;20082;-83
2023/07/20 02:39:28;;;;;;;5.80;3.67;;;15.60;99.90;;;;;;6302749;22;20011;-83
2023/07/20 02:41:54;;;;;;;5.93;2.45;;;15.60;99.90;;;;;;6275609;22;20306;-83
2023/07/20 02:44:20;;;;;;;5.82;3.55;;;15.60;99.90;;;;;;6274495;22;20011;-83
2023/07/20 02:46:46;;;;;;;6.78;3.55;;;15.50;99.90;;;;;;6275033;22;20346;-83
2023/07/20 02:49:12;;;;;;;6.88;3.67;;;15.50;99.90;;;;;;6302215;22;20011;-83
2023/07/20 02:51:37;;;;;;;5.55;3.40;;;15.40;99.90;;;;;;6249793;22;20022;-83
2023/07/20 02:54:03;;;;;;;6.15;3.30;;;15.70;99.90;;;;;;6275721;22;20007;-83
2023/07/20 02:56:29;;;;;;;4.97;3.72;;;15.40;99.90;;;;;;6275783;22;20042;-83
2023/07/20 02:58:55;;;;;;;4.88;3.63;;;15.40;99.90;;;;;;6301682;22;20493;-83
2023/07/20 03:01:21;;;;;;;6.47;4.18;;;15.30;99.90;;;;;;6274337;22;20434;-83
2023/07/20 03:03:47;;;;;;;5.13;3.85;;;15.30;99.90;;;;;;6249967;22;20007;-83
2023/07/20 03:06:16;;;;;;;6.10;3.38;;;15.30;99.90;;;;;;6302600;22;20015;-84
2023/07/20 03:08:47;;;;;;;4.70;3.08;;;15.30;99.90;;;;;;6276002;22;20076;-84
2023/07/20 03:11:16;;;;;;;5.65;3.72;;;15.30;99.90;;;;;;6274550;22;20282;-84
2023/07/20 03:13:42;;;;;;;5.82;3.47;;;15.20;99.90;;;;;;6303603;22;20022;-84
2023/07/20 03:16:11;;;;;;;4.75;3.42;;;15.20;99.90;;;;;;6302458;22;20007;-83
2023/07/20 03:18:38;;;;;;;5.03;3.25;;;15.20;99.90;;;;;;6275257;22;20015;-84
2023/07/20 03:21:05;;;;;;;5.10;2.90;;;15.20;99.90;;;;;;6301295;22;20131;-84
2023/07/20 03:23:31;;;;;;;4.32;2.83;;;15.20;99.90;;;;;;6248851;22;20548;-84
2023/07/20 03:25:56;;;;;;;5.55;4.18;;;15.10;99.90;;;;;;6275595;22;20090;-84
2023/07/20 03:28:22;;;;;;;4.25;2.78;;;15.00;99.90;;;;;;6250100;22;20061;-83
2023/07/20 03:30:56;;;;;;;4.93;3.42;;;15.10;99.90;;;;;;6250120;22;20073;-84
2023/07/20 03:33:27;;;;;;;4.22;3.13;;;15.10;99.90;;;;;;6275652;22;20086;-84
2023/07/20 03:35:53;;;;;;;6.65;4.05;;;15.00;99.90;;;;;;6275327;22;20450;-83
2023/07/20 03:38:20;;;;;;;4.45;3.15;;;15.10;99.90;;;;;;6274901;22;20043;-83
2023/07/20 03:40:53;;;;;;;4.60;3.10;;;15.10;99.90;;;;;;6302127;22;20022;-84
2023/07/20 03:43:18;;;;;;;4.75;2.65;;;15.30;99.90;;;;;;6274305;22;20026;-84
2023/07/20 03:45:45;;;;;;;4.32;2.22;;;15.00;99.90;;;;;;6274464;22;20020;-84
2023/07/20 03:48:11;;;;;;;5.10;3.42;;;15.00;99.90;;;;;;6274225;22;20084;-84
2023/07/20 03:50:37;;;;;;;5.22;3.42;;;14.90;99.90;;;;;;6274127;22;20018;-84
2023/07/20 03:53:03;;;;;;;4.93;3.53;;;14.80;99.90;;;;;;6274143;22;20073;-83
2023/07/20 03:55:31;;;;;;;5.82;2.88;;;14.80;99.90;;;;;;6302479;22;20011;-83
2023/07/20 03:57:57;;;;;;;6.55;3.30;;;14.80;99.90;;;;;;6302469;22;20069;-84
2023/07/20 04:00:23;;;;;;;5.00;3.15;;;14.70;99.90;;;;;;6249093;22;20019;-84
2023/07/20 04:02:49;;;;;;;4.45;2.60;;;14.70;99.90;;;;;;6250102;22;20019;-83
2023/07/20 04:05:16;;;;;;;7.20;3.67;;;14.70;99.90;;;;;;6301069;22;20047;-84
2023/07/20 04:07:41;;;;;;;5.75;3.20;;;14.70;99.90;;;;;;6275903;22;20007;-84
2023/07/20 04:10:08;;;;;;;6.03;4.03;;;14.70;99.90;;;;;;6301835;22;20016;-84
2023/07/20 04:12:36;;;;;;;4.35;2.92;;;14.70;99.90;;;;;;6302729;22;20438;-84
2023/07/20 04:15:03;;;;;;;3.97;2.10;;;14.70;99.90;;;;;;6274798;22;20007;-85
2023/07/20 04:17:30;;;;;;;4.07;2.55;;;14.60;99.90;;;;;;6248590;22;20019;-84
2023/07/20 04:19:55;;;;;;;5.53;3.45;;;14.60;99.90;;;;;;6274231;22;20011;-84
2023/07/20 04:22:22;;;;;;;4.93;2.90;;;14.60;99.90;;;;;;6275032;22;20128;-84
2023/07/20 04:24:47;;;;;;;6.30;2.90;;;14.60;99.90;;;;;;6303329;22;20007;-84
2023/07/20 04:27:13;;;;;;;5.53;2.55;;;14.60;99.90;;;;;;6275293;22;20342;-84
2023/07/20 04:29:39;;;;;;;4.35;2.78;;;14.60;99.90;;;;;;6274916;22;20071;-84
2023/07/20 04:32:05;;;;;;;4.93;3.22;;;14.60;99.90;;;;;;6273318;22;20476;-84
2023/07/20 04:34:31;;;;;;;4.38;3.03;;;14.60;99.90;;;;;;6274552;22;20015;-84
2023/07/20 04:36:57;;;;;;;4.40;2.72;;;14.60;99.90;;;;;;6249124;22;20018;-84
2023/07/20 04:39:22;;;;;;;4.43;2.45;;;14.60;99.90;;;;;;6302725;22;20007;-84
2023/07/20 04:41:48;;;;;;;4.10;2.22;;;14.60;99.90;;;;;;6303229;22;20011;-84
2023/07/20 04:44:17;;;;;;;4.38;2.60;;;14.60;99.90;;;;;;6273273;22;20504;-83
2023/07/20 04:46:43;;;;;;;4.03;2.35;;;14.50;99.90;;;;;;6247379;22;20023;-85
2023/07/20 04:49:24;;;;;;;6.90;2.85;;;14.60;99.90;;;;;;6275450;22;20757;-86
2023/07/20 04:51:59;;;;;;;4.85;2.67;;;14.60;99.90;;;;;;6274577;22;20019;-85
2023/07/20 04:54:41;;;;;;;4.20;2.70;;;14.50;99.90;;;;;;6302087;22;20073;-84
2023/07/20 04:57:12;;;;;;;4.45;2.72;;;14.60;99.90;;;;;;6275391;22;20007;-84
2023/07/20 04:59:38;;;;;;;5.35;3.03;;;14.60;99.90;;;;;;6274742;22;20511;-84
2023/07/20 05:02:03;;;;;;;3.88;2.30;;;14.60;99.90;;;;;;6246513;22;20020;-84
2023/07/20 05:04:29;;;;;;;4.45;2.67;;;14.60;99.90;;;;;;6275465;22;20090;-85
2023/07/20 05:06:55;;;;;;;4.68;2.50;;;14.70;99.90;;;;;;6302684;22;20022;-84
2023/07/20 05:09:21;;;;;;;5.95;2.40;;;14.70;99.90;;;;;;6276709;22;20011;-85
2023/07/20 05:11:48;;;;;;;5.20;2.67;;;14.70;99.90;;;;;;6274972;22;20015;-85
2023/07/20 05:14:14;;;;;;;4.78;2.33;;;14.70;99.90;;;;;;6249903;22;20405;-83
2023/07/20 05:16:40;;;;;;;3.75;2.38;;;14.80;99.90;;;;;;6249893;22;20050;-86
2023/07/20 05:19:06;;;;;;;3.72;2.05;;;14.80;99.90;;;;;;6302890;22;20011;-83
2023/07/20 05:21:31;;;;;;;6.40;2.85;;;14.80;99.90;;;;;;6305780;22;20080;-83
2023/07/20 05:24:02;;;;;;;4.45;2.65;;;14.80;99.90;;;;;;6276576;22;20019;-87
2023/07/20 05:26:28;;;;;;;3.38;2.15;;;14.90;99.90;;;;;;6277563;22;20055;-83
2023/07/20 05:28:54;;;;;;;3.63;2.03;;;14.90;99.90;;;;;;6274159;22;20104;-83
2023/07/20 05:31:19;;;;;;;4.43;2.17;;;15.00;99.90;;;;;;6249720;22;20023;-84
2023/07/20 05:33:45;;;;;;;3.83;2.00;;;15.10;99.90;;;;;;6249553;22;20008;-82
2023/07/20 05:36:11;;;;;;;5.05;1.95;;;15.10;99.90;;;;;;6306122;22;20057;-86
2023/07/20 05:38:37;;;;;;;4.93;2.20;;;15.20;99.90;;;;;;6279690;22;20018;-91
2023/07/20 05:41:05;;;;;;;3.85;2.50;;;15.20;99.90;;;;;;6279347;22;20011;-88
2023/07/20 05:43:31;;;;;;;3.05;1.40;;;15.30;99.90;;;;;;6281590;22;20007;-89
2023/07/20 05:52:26;;;;;;;;;;;;;;;;;;;;;
2023/07/20 05:55:09;;;;;;;2.78;1.42;;;15.50;99.90;;;;;;6243758;22;20389;-85
2023/07/20 05:57:35;;;;;;;6.20;1.67;;;15.50;99.90;;;;;;6277368;22;20102;-86
2023/07/20 06:00:01;;;;;;;4.60;1.77;;;15.40;99.90;;;;;;6279059;22;20019;-86
2023/07/20 06:02:28;;;;;;;11.38;2.60;;;15.50;99.90;;;;;;6276176;22;20068;-82
2023/07/20 06:04:54;;;;;;;4.60;2.35;;;15.40;99.90;;;;;;6251256;22;20446;-83
2023/07/20 06:07:20;;;;;;;4.32;2.35;;;15.40;99.90;;;;;;6276255;22;20011;-83
2023/07/20 06:09:46;;;;;;;7.38;1.80;;;15.40;99.90;;;;;;6304820;22;20011;-83
2023/07/20 06:12:11;;;;;;;3.50;2.20;;;15.40;99.90;;;;;;6275900;22;20149;-83
2023/07/20 06:14:38;;;;;;;4.88;2.13;;;15.40;99.90;;;;;;6304431;22;20011;-84
2023/07/20 06:17:04;;;;;;;5.32;1.60;;;15.40;99.90;;;;;;6276001;22;20054;-84
2023/07/20 06:19:30;;;;;;;4.72;2.25;;;15.40;99.90;;;;;;6251976;22;20011;-86
2023/07/20 06:21:56;;;;;;;4.90;1.35;;;15.40;99.90;;;;;;6252146;22;20022;-87
2023/07/20 06:24:21;;;;;;;3.00;1.50;;;15.40;99.90;;;;;;6277995;22;20141;-87
2023/07/20 06:26:47;;;;;;;3.88;1.30;;;15.40;99.90;;;;;;6250352;22;20446;-84
2023/07/20 06:29:13;;;;;;;4.10;1.38;;;15.40;99.90;;;;;;6248831;22;20011;-85
2023/07/20 06:31:39;;;;;;;3.40;1.30;;;15.40;99.90;;;;;;6275548;22;20069;-84
2023/07/20 06:34:05;;;;;;;4.60;1.40;;;15.50;99.90;;;;;;6275182;22;20341;-83
2023/07/20 06:36:31;;;;;;;3.05;1.42;;;15.50;99.90;;;;;;6276080;22;20090;-85
2023/07/20 06:38:57;;;;;;;4.45;1.20;;;15.50;99.90;;;;;;6250181;22;20338;-85
2023/07/20 06:41:22;;;;;;;2.22;0.98;;;15.50;99.90;;;;;;6274696;22;20023;-84
2023/07/20 06:43:48;;;;;;;3.05;1.15;;;15.50;99.90;;;;;;6304839;22;20007;-86
2023/07/20 06:46:14;;;;;;;3.47;1.10;;;15.60;99.90;;;;;;6252569;22;20042;-87
2023/07/20 06:48:40;;;;;;;2.60;1.00;;;15.80;99.90;;;;;;6304274;22;20019;-88
2023/07/20 06:51:06;;;;;;;4.45;1.00;;;15.60;99.90;;;;;;6304593;22;20481;-86
2023/07/20 06:53:32;;;;;;;2.65;0.85;;;15.60;99.90;;;;;;6279252;22;20106;-88
2023/07/20 06:55:58;;;;;;;6.28;1.45;;;15.70;99.90;;;;;;6307055;22;20023;-84
2023/07/20 06:58:24;;;;;;;3.33;0.90;;;15.70;99.90;;;;;;6306289;22;20004;-88
2023/07/20 07:00:50;;;;;;;4.30;1.15;;;15.80;99.90;;;;;;6253235;22;20053;-91
2023/07/20 07:03:16;;;;;;;3.40;0.80;;;15.80;99.90;;;;;;6276928;22;20011;-86
2023/07/20 07:05:46;;;;;;;3.70;1.00;;;15.80;99.90;;;;;;6278627;22;20019;-86
2023/07/20 07:08:12;;;;;;;5.93;1.20;;;15.90;99.90;;;;;;6304503;22;20030;-86
2023/07/20 07:10:38;;;;;;;2.22;0.80;;;15.90;99.90;;;;;;6252170;22;20090;-85
2023/07/20 07:13:04;;;;;;;3.13;1.20;;;15.90;99.90;;;;;;6305609;22;20035;-86
2023/07/20 07:15:33;;;;;;;6.55;1.60;;;16.10;99.90;;;;;;6277616;22;20064;-85
2023/07/20 07:17:59;;;;;;;3.60;1.05;;;16.10;99.90;;;;;;6276733;22;20594;-86
2023/07/20 07:20:26;;;;;;;4.60;0.90;;;16.30;99.90;;;;;;6277352;22;20086;-86
2023/07/20 07:22:52;;;;;;;3.17;0.77;;;16.30;99.90;;;;;;6303258;22;20015;-87
2023/07/20 07:25:19;;;;;;;3.53;0.90;;;16.50;99.90;;;;;;6276240;22;20015;-87
2023/07/20 07:27:52;;;;;;;4.00;0.95;;;16.60;99.90;;;;;;6303700;22;20011;-86
2023/07/20 07:30:18;;;;;;;5.65;1.00;;;16.90;99.90;;;;;;6276203;22;20076;-86
2023/07/20 07:32:44;;;;;;;3.25;0.85;;;17.20;99.90;;;;;;6304597;22;20012;-87
2023/07/20 07:35:09;;;;;;;3.03;0.88;;;17.50;99.90;;;;;;6278520;22;20386;-86
2023/07/20 07:37:36;;;;;;;3.38;1.15;;;17.70;99.90;;;;;;6303633;22;20015;-88
2023/07/20 07:40:03;;;;;;;4.80;0.95;;;17.90;99.90;;;;;;6276448;22;20008;-88
2023/07/20 07:42:29;;;;;;;6.15;1.75;;;18.10;99.90;;;;;;6305802;22;20019;-90
2023/07/20 07:44:55;;;;;;;4.60;1.10;;;18.30;99.90;;;;;;6308372;22;20043;-90
2023/07/20 07:47:21;;;;;;;4.00;1.00;;;18.30;99.90;;;;;;6279778;22;20726;-87
2023/07/20 07:49:46;;;;;;;3.65;1.38;;;18.20;99.90;;;;;;6278334;22;20132;-87
2023/07/20 07:52:14;;;;;;;4.70;1.35;;;18.10;99.90;;;;;;6303523;22;20584;-87
2023/07/20 07:54:40;;;;;;;3.70;1.10;;;18.00;99.90;;;;;;6306450;22;20011;-87
2023/07/20 07:57:06;;;;;;;5.60;1.17;;;17.90;99.90;;;;;;6277612;22;20146;-87
2023/07/20 07:59:36;;;;;;;4.53;1.35;;;17.80;99.90;;;;;;6306358;22;20375;-86
2023/07/20 08:02:05;;;;;;;5.05;1.00;;;17.90;99.90;;;;;;6254339;22;20015;-88
2023/07/20 08:04:31;;;;;;;4.68;1.10;;;18.20;99.90;;;;;;6279946;22;20015;-87
2023/07/20 08:06:59;;;;;;;5.30;1.27;;;18.50;99.90;;;;;;6279434;22;20095;-87
2023/07/20 08:09:26;;;;;;;3.47;1.25;;;18.70;99.90;;;;;;6306283;22;20019;-86
2023/07/20 08:11:51;;;;;;;3.17;0.90;;;18.90;99.90;;;;;;6305907;22;20019;-87
2023/07/20 08:14:17;;;;;;;5.38;1.00;;;18.80;99.90;;;;;;6276206;22;20723;-86
2023/07/20 08:16:43;;;;;;;6.90;1.45;;;18.80;99.90;;;;;;6276819;22;20092;-87
2023/07/20 08:19:09;;;;;;;3.83;1.30;;;18.90;99.90;;;;;;6276466;22;20008;-87
2023/07/20 08:21:35;;;;;;;6.20;1.30;;;19.20;99.90;;;;;;6305484;22;20060;-88
2023/07/20 08:24:00;;;;;;;3.83;1.40;;;19.30;99.90;;;;;;6276236;22;20557;-87
2023/07/20 08:26:26;;;;;;;3.47;1.10;;;19.20;99.90;;;;;;6304758;22;20429;-88
2023/07/20 08:28:52;;;;;;;2.60;0.85;;;19.00;99.90;;;;;;6276046;22;20007;-88
2023/07/20 08:31:18;;;;;;;3.15;1.27;;;18.90;99.90;;;;;;6251024;22;20042;-89
2023/07/20 08:33:44;;;;;;;5.30;1.55;;;18.90;99.90;;;;;;6250760;22;20007;-87
2023/07/20 08:36:10;;;;;;;4.78;1.20;;;19.10;99.90;;;;;;6305657;22;20068;-87
2023/07/20 08:38:39;;;;;;;5.88;1.88;;;19.30;99.90;;;;;;6277421;22;20015;-87
2023/07/20 08:41:04;;;;;;;3.95;1.23;;;19.50;99.90;;;;;;6250460;22;20030;-87
2023/07/20 08:43:31;;;;;;;3.05;1.15;;;19.60;99.90;;;;;;6276175;22;20016;-87
2023/07/20 08:45:57;;;;;;;3.45;1.13;;;19.70;99.90;;;;;;6277611;22;20011;-87
2023/07/20 08:48:24;;;;;;;4.47;1.42;;;19.60;99.90;;;;;;6305100;22;20023;-87
2023/07/20 08:50:54;;;;;;;5.43;1.30;;;19.70;99.90;;;;;;6277514;22;20019;-87
2023/07/20 08:53:23;;;;;;;4.05;1.10;;;19.70;99.90;;;;;;6249564;22;20384;-87
2023/07/20 08:55:52;;;;;;;3.97;1.23;;;19.80;99.90;;;;;;6276215;22;20046;-87
2023/07/20 08:58:18;;;;;;;5.43;1.60;;;19.70;99.90;;;;;;6250643;22;20019;-87
2023/07/20 09:00:45;;;;;;;3.88;1.25;;;19.60;99.90;;;;;;6303972;22;20019;-86
2023/07/20 09:03:12;;;;;;;6.38;1.40;;;19.40;99.90;;;;;;6303969;22;20391;-86
2023/07/20 09:05:39;;;;;;;5.88;1.42;;;19.20;99.90;;;;;;6251053;22;20430;-86
2023/07/20 09:08:05;;;;;;;4.65;1.20;;;19.10;99.90;;;;;;6250413;22;20027;-86
2023/07/20 09:10:31;;;;;;;3.17;1.08;;;19.10;99.90;;;;;;6278776;22;20438;-87
2023/07/20 09:12:57;;;;;;;6.68;1.27;;;19.20;99.90;;;;;;6252108;22;20049;-86
2023/07/20 09:15:23;;;;;;;3.60;0.95;;;19.40;99.90;;;;;;6306106;22;20078;-87
2023/07/20 09:17:50;;;;;;;3.45;1.15;;;19.70;99.90;;;;;;6253658;22;20026;-87
2023/07/20 09:20:18;;;;;;;6.38;1.00;;;19.90;99.90;;;;;;6278358;22;20015;-87
2023/07/20 09:22:44;;;;;;;4.97;1.27;;;20.10;99.90;;;;;;6252936;22;20090;-87
2023/07/20 09:25:15;;;;;;;5.75;1.48;;;20.20;99.90;;;;;;6279820;22;20022;-88
2023/07/20 09:27:44;;;;;;;5.65;1.38;;;20.30;99.90;;;;;;6278405;22;20320;-88
2023/07/20 09:30:13;;;;;;;4.05;1.10;;;20.60;99.90;;;;;;6277252;22;20011;-90
2023/07/20 09:32:50;;;;;;;4.53;1.02;;;20.70;99.90;;;;;;6308252;22;20022;-91
2023/07/20 09:35:21;;;;;;;2.67;0.63;;;20.90;99.90;;;;;;6276863;22;20018;-85
2023/07/20 09:37:58;;;;;;;3.88;0.70;;;20.90;99.00;;;;;;6250117;22;20011;-84
2023/07/20 09:40:25;;;;;;;2.90;1.00;;;20.70;99.70;;;;;;6302879;22;20104;-85
2023/07/20 09:42:59;;;;;;;3.17;0.70;;;20.40;99.70;;;;;;6277311;22;20015;-85
2023/07/20 09:45:55;;;;;;;3.88;0.82;;;20.20;99.90;;;;;;6250473;22;20104;-85
2023/07/20 09:48:27;;;;;;;4.03;0.93;;;20.10;99.50;;;;;;6296200;22;20011;-86
2023/07/20 09:50:54;;;;;;;6.35;0.90;;;20.20;99.90;;;;;;6302001;22;20047;-85
2023/07/20 09:53:20;;;;;;;4.28;0.90;;;20.40;99.90;;;;;;6302140;22;20023;-85
2023/07/20 09:55:47;;;;;;;4.82;1.08;;;20.60;99.40;;;;;;6251002;22;20012;-85
2023/07/20 09:58:14;;;;;;;4.82;1.00;;;20.60;99.30;;;;;;6250350;22;20007;-85
2023/07/20 10:00:44;;;;;;;6.03;1.15;;;20.70;99.30;;;;;;6275629;22;20019;-85
2023/07/20 10:03:12;;;;;;;4.72;1.00;;;20.80;98.90;;;;;;6275367;22;20077;-85
2023/07/20 10:05:42;;;;;;;3.70;0.80;;;20.90;99.40;;;;;;6275361;22;20007;-85
2023/07/20 10:08:11;;;;;;;3.65;0.85;;;21.00;99.30;;;;;;6275225;22;20060;-86
2023/07/20 10:10:40;;;;;;;4.35;0.90;;;21.00;99.50;;;;;;6302781;22;20015;-85
2023/07/20 10:13:16;;;;;;;2.38;0.70;;;20.90;99.70;;;;;;6275728;22;20007;-85
2023/07/20 10:15:50;;;;;;;1.95;0.60;;;20.90;99.50;;;;;;6275361;22;20391;-86
2023/07/20 10:18:49;;;;;;;3.28;0.70;;;20.90;99.30;;;;;;6302429;22;20465;-86
2023/07/20 10:21:17;;;;;;;2.88;0.73;;;21.00;98.30;;;;;;6241695;22;20322;-86
2023/07/20 10:23:43;;;;;;;4.10;0.80;;;21.20;99.00;;;;;;6275972;22;20304;-85
2023/07/20 10:26:10;;;;;;;3.00;0.95;;;21.50;98.80;;;;;;6267320;22;20015;-86
2023/07/20 10:28:37;;;;;;;4.18;1.00;;;21.50;98.70;;;;;;6248960;22;20472;-86
2023/07/20 10:31:03;;;;;;;4.15;0.93;;;21.50;98.60;;;;;;6302531;22;20015;-88
2023/07/20 10:33:29;;;;;;;2.75;0.60;;;21.40;98.50;;;;;;6303176;22;20008;-87
2023/07/20 10:35:58;;;;;;;1.33;0.60;;;21.40;98.40;;;;;;6273930;22;20095;-87
2023/07/20 10:38:46;;;;;;;3.20;0.57;;;21.50;98.30;;;;;;6302928;22;20451;-88
2023/07/20 10:41:33;;;;;;;3.90;0.80;;;21.70;97.90;;;;;;6274234;22;20342;-88
2023/07/20 10:44:01;;;;;;;3.88;0.68;;;21.90;97.30;;;;;;6248945;22;20060;-87
2023/07/20 10:46:39;;;;;;;2.85;0.70;;;22.10;97.80;;;;;;6275433;22;20011;-86
2023/07/20 10:49:07;;;;;;;4.88;1.40;;;22.30;97.60;;;;;;6274215;22;20405;-86
2023/07/20 10:51:42;;;;;;;2.08;0.60;;;22.40;97.40;;;;;;6275004;22;20050;-86
2023/07/20 10:54:28;;;;;;;1.60;0.50;;;22.50;97.30;;;;;;6302129;22;20311;-87
2023/07/20 10:56:56;;;;;;;3.15;0.68;;;22.50;97.00;;;;;;6301689;22;20022;-87
2023/07/20 10:59:25;;;;;;;3.78;0.85;;;22.40;97.60;;;;;;6273835;22;20438;-87
2023/07/20 11:01:55;;;;;;;2.05;0.70;;;22.40;97.20;;;;;;6275731;22;20019;-87
2023/07/20 11:04:40;;;;;;;4.10;0.70;;;22.40;97.90;;;;;;6249146;22;20018;-87
2023/07/20 11:07:06;;;;;;;2.63;0.65;;;22.40;97.60;;;;;;6274978;22;20041;-87
2023/07/20 11:09:37;;;;;;;2.40;0.68;;;22.30;97.60;;;;;;6249136;22;20015;-86
2023/07/20 11:12:10;;;;;;;3.25;0.95;;;22.10;97.40;;;;;;6301911;22;20014;-87
2023/07/20 11:14:52;;;;;;;1.80;0.55;;;22.00;97.20;;;;;;6302085;22;20307;-86
2023/07/20 11:17:22;;;;;;;4.13;0.70;;;21.90;97.00;;;;;;6249649;22;20034;-87
2023/07/20 11:19:48;;;;;;;3.40;0.70;;;21.80;97.30;;;;;;6302350;22;20368;-88
2023/07/20 11:22:17;;;;;;;2.83;0.60;;;21.90;97.40;;;;;;6274182;22;20058;-88
2023/07/20 11:24:43;;;;;;;3.17;0.60;;;21.90;97.20;;;;;;6274745;22;20007;-88
2023/07/20 11:27:09;;;;;;;3.35;0.73;;;22.00;96.80;;;;;;6274108;22;20008;-87
2023/07/20 11:29:37;;;;;;;4.07;0.80;;;22.20;97.20;;;;;;6275327;22;20069;-88
2023/07/20 11:32:03;;;;;;;3.28;0.77;;;22.30;97.70;;;;;;6301811;22;20065;-88
2023/07/20 11:34:31;;;;;;;2.85;0.60;;;22.50;97.50;;;;;;6274455;22;20015;-87
2023/07/20 11:36:57;;;;;;;7.60;0.93;;;22.60;97.00;;;;;;6248275;22;20015;-87
2023/07/20 11:39:25;;;;;;;5.28;0.70;;;22.50;96.10;;;;;;6274663;22;20007;-87
2023/07/20 11:41:55;;;;;;;3.92;0.63;;;22.40;96.70;;;;;;6272904;22;20050;-88
2023/07/20 11:44:29;;;;;;;2.78;0.60;;;22.30;96.90;;;;;;6249502;22;20011;-88
2023/07/20 11:47:07;;;;;;;3.33;0.80;;;22.30;96.80;;;;;;6248744;22;20090;-88
2023/07/20 11:49:43;;;;;;;3.60;0.77;;;22.30;97.20;;;;;;6274981;22;20476;-88
2023/07/20 11:52:15;;;;;;;2.53;0.60;;;22.20;97.70;;;;;;6301734;22;20011;-88
2023/07/20 11:54:42;;;;;;;3.20;0.82;;;22.10;96.70;;;;;;6274684;22;20011;-88
2023/07/20 11:57:16;;;;;;;2.40;0.63;;;22.10;96.70;;;;;;6273552;22;20019;-88
2023/07/20 11:59:57;;;;;;;;;;;22.00;97.30;;;;;;6275671;22;20083;-88
2023/07/20 12:02:26;;;;;;;2.40;0.60;;;22.00;96.20;;;;;;6299832;22;19915;-87
2023/07/20 12:04:52;;;;;;;5.05;0.70;;;22.00;97.10;;;;;;6248902;22;20011;-88
2023/07/20 12:07:21;;;;;;;3.10;0.60;;;22.30;96.70;;;;;;6273908;22;20019;-88
2023/07/20 12:10:07;;;;;;;2.72;0.80;;;22.60;97.00;;;;;;6274138;22;20011;-88
2023/07/20 12:12:34;;;;;;;2.28;0.60;;;22.90;97.30;;;;;;6302143;22;20019;-88
2023/07/20 12:15:32;;;;;;;1.98;0.68;;;22.90;96.60;;;;;;6301388;22;20091;-88
2023/07/20 12:18:00;;;;;;;2.58;0.70;;;22.80;95.50;;;;;;6205954;22;20188;-88
2023/07/20 12:20:34;;;;;;;2.80;0.68;;;22.70;96.10;;;;;;6274420;22;20026;-88
2023/07/20 12:23:02;;;;;;;1.88;0.65;;;22.60;96.30;;;;;;6248355;22;20499;-88
2023/07/20 12:25:39;;;;;;;3.90;0.77;;;22.60;96.30;;;;;;6301905;22;20012;-87
2023/07/20 12:28:06;;;;;;;1.95;0.63;;;22.50;95.40;;;;;;6301351;22;20541;-89
2023/07/20 12:30:33;;;;;;;8.32;0.85;;;22.40;96.10;;;;;;6245408;22;20011;-88
2023/07/20 12:32:59;;;;;;;4.75;0.93;;;22.20;96.10;;;;;;6247855;22;20022;-88
2023/07/20 12:35:24;;;;;;;9.75;1.27;;;22.10;97.30;;;;;;6274724;22;20035;-87
2023/07/20 12:37:51;;;;;;;6.00;1.35;;;21.90;99.20;;;;;;6274124;22;20019;-86
2023/07/20 12:40:17;;;;;;;3.67;1.30;;;21.70;99.80;;;;;;6274105;22;20065;-86
2023/07/20 12:42:43;;;;;;;3.72;0.93;;;21.50;99.90;;;;;;6303075;22;20015;-86
2023/07/20 12:45:13;;;;;;;5.88;1.30;;;21.60;99.90;;;;;;6302792;22;20015;-88
2023/07/20 12:47:40;;;;;;;3.33;1.00;;;21.50;99.90;;;;;;6276371;22;20022;-86
2023/07/20 12:50:07;;;;;;;4.38;0.93;;;21.50;99.90;;;;;;6303570;22;20007;-86
2023/07/20 12:52:37;;;;;;;3.05;1.00;;;21.50;99.90;;;;;;6276032;22;20022;-86
2023/07/20 12:55:03;;;;;;;4.55;1.10;;;21.60;99.90;;;;;;6303539;22;20342;-86
2023/07/20 12:57:29;;;;;;;5.32;0.90;;;21.60;99.90;;;;;;6276268;22;20011;-86
2023/07/20 12:59:54;;;;;;;3.50;1.02;;;21.70;99.90;;;;;;6274774;22;20632;-87